Time;durP1;ratioP1;P1;durP2;ratioP2;P2;SDS_P1;SDS_P2;PMS_P1;PMS_P2;Temp;Humidity;BMP_temperature;BMP_pressure;BME280_temperature;BME280_humidity;BME280_pressure;Samples;Min_cycle;Max_cycle;Signal;HPM_P1;HPM_P2
2022/07/23 00:00:35;;;;;;;5.85;3.08;;;;;;;;;;5035635;28;20093;-77
2022/07/23 00:03:01;;;;;;;4.65;3.17;;;;;;;;;;5035709;28;20484;-77
2022/07/23 00:05:27;;;;;;;6.57;2.97;;;;;;;;;;5035661;28;20128;-77
2022/07/23 00:07:53;;;;;;;5.82;3.30;;;;;;;;;;5035660;28;20033;-77
2022/07/23 00:10:19;;;;;;;6.85;3.35;;;;;;;;;;5035497;28;20053;-77
2022/07/23 00:12:45;;;;;;;5.53;3.17;;;;;;;;;;5035334;28;20037;-77
2022/07/23 00:15:11;;;;;;;8.90;3.50;;;;;;;;;;5035582;28;20037;-77
2022/07/23 00:17:37;;;;;;;4.38;3.13;;;;;;;;;;5035079;28;20049;-77
2022/07/23 00:20:04;;;;;;;8.65;3.50;;;;;;;;;;5035326;28;20021;-77
2022/07/23 00:22:30;;;;;;;8.85;3.63;;;;;;;;;;5035205;28;20029;-77
2022/07/23 00:24:56;;;;;;;5.75;3.22;;;;;;;;;;5035135;28;20018;-77
2022/07/23 00:27:23;;;;;;;7.43;4.00;;;;;;;;;;5035182;28;20025;-77
2022/07/23 00:29:49;;;;;;;8.70;4.00;;;;;;;;;;5035038;28;20045;-77
2022/07/23 00:32:15;;;;;;;5.95;3.80;;;;;;;;;;5035256;28;20078;-77
2022/07/23 00:34:41;;;;;;;7.78;4.30;;;;;;;;;;5034948;28;20041;-77
2022/07/23 00:37:07;;;;;;;8.85;3.72;;;;;;;;;;5054426;28;20036;-77
2022/07/23 00:39:33;;;;;;;9.65;3.95;;;;;;;;;;5054976;28;20021;-78
2022/07/23 00:41:59;;;;;;;6.03;3.90;;;;;;;;;;5054803;28;20036;-78
2022/07/23 00:44:27;;;;;;;5.80;4.05;;;;;;;;;;5054904;28;20491;-77
2022/07/23 00:46:54;;;;;;;7.10;3.65;;;;;;;;;;5054652;28;20021;-77
2022/07/23 00:49:21;;;;;;;5.03;3.88;;;;;;;;;;5054752;28;20096;-78
2022/07/23 00:51:48;;;;;;;6.30;4.28;;;;;;;;;;5054682;28;20093;-78
2022/07/23 00:54:14;;;;;;;8.30;4.40;;;;;;;;;;5054502;28;20049;-77
2022/07/23 00:56:41;;;;;;;7.32;4.10;;;;;;;;;;5053399;28;20102;-77
2022/07/23 00:59:07;;;;;;;7.55;4.82;;;;;;;;;;5054422;28;20494;-78
2022/07/23 01:01:33;;;;;;;7.90;3.78;;;;;;;;;;5054611;28;20044;-78
2022/07/23 01:03:59;;;;;;;6.70;4.28;;;;;;;;;;5054637;28;20060;-78
2022/07/23 01:06:26;;;;;;;7.70;4.38;;;;;;;;;;5054504;28;20349;-78
2022/07/23 01:08:52;;;;;;;9.25;3.92;;;;;;;;;;5054376;28;20790;-78
2022/07/23 01:11:18;;;;;;;6.07;4.18;;;;;;;;;;5054262;28;20416;-77
2022/07/23 01:13:44;;;;;;;8.07;4.30;;;;;;;;;;5054087;28;20479;-78
2022/07/23 01:16:10;;;;;;;7.45;4.60;;;;;;;;;;5054409;28;20158;-78
2022/07/23 01:18:36;;;;;;;7.97;4.05;;;;;;;;;;5053937;28;20160;-77
2022/07/23 01:21:03;;;;;;;6.05;4.05;;;;;;;;;;5054076;28;20427;-78
2022/07/23 01:23:29;;;;;;;8.55;3.75;;;;;;;;;;5053937;28;20479;-77
2022/07/23 01:25:55;;;;;;;5.90;4.07;;;;;;;;;;5053919;28;20100;-78
2022/07/23 01:28:21;;;;;;;6.78;3.92;;;;;;;;;;5053790;28;20025;-78
2022/07/23 01:30:48;;;;;;;7.07;4.88;;;;;;;;;;5053910;28;20082;-78
2022/07/23 01:33:14;;;;;;;7.65;4.25;;;;;;;;;;5053866;28;20021;-78
2022/07/23 01:35:40;;;;;;;8.20;4.90;;;;;;;;;;5053742;28;20033;-78
2022/07/23 01:38:07;;;;;;;7.85;4.25;;;;;;;;;;5053576;28;20036;-78
2022/07/23 01:40:33;;;;;;;6.32;4.80;;;;;;;;;;5053592;28;20021;-78
2022/07/23 01:42:59;;;;;;;8.93;4.28;;;;;;;;;;5053525;28;20546;-77
2022/07/23 01:45:25;;;;;;;8.32;4.65;;;;;;;;;;5053685;28;20048;-78
2022/07/23 01:47:51;;;;;;;7.95;4.65;;;;;;;;;;5053676;28;20055;-78
2022/07/23 01:50:17;;;;;;;5.65;4.18;;;;;;;;;;5053398;28;20048;-78
2022/07/23 01:52:43;;;;;;;10.77;4.15;;;;;;;;;;5053534;28;20029;-78
2022/07/23 01:55:09;;;;;;;9.32;4.28;;;;;;;;;;5053478;28;20036;-78
2022/07/23 01:57:35;;;;;;;8.32;4.15;;;;;;;;;;5053365;28;20060;-78
2022/07/23 02:00:01;;;;;;;11.55;4.32;;;;;;;;;;5053450;28;20036;-78
2022/07/23 02:02:27;;;;;;;9.70;4.35;;;;;;;;;;5053445;28;20557;-78
2022/07/23 02:04:53;;;;;;;5.72;3.80;;;;;;;;;;5053337;28;20017;-78
2022/07/23 02:07:19;;;;;;;9.05;4.13;;;;;;;;;;5053029;28;20017;-78
2022/07/23 02:09:45;;;;;;;6.50;3.97;;;;;;;;;;5053213;28;20471;-78
2022/07/23 02:12:11;;;;;;;7.22;4.13;;;;;;;;;;5053056;28;20032;-78
2022/07/23 02:14:37;;;;;;;9.30;4.45;;;;;;;;;;5053142;28;20037;-78
2022/07/23 02:17:03;;;;;;;8.00;4.38;;;;;;;;;;5052889;28;20095;-78
2022/07/23 02:19:29;;;;;;;8.52;4.13;;;;;;;;;;5053084;28;20029;-78
2022/07/23 02:21:55;;;;;;;7.63;4.55;;;;;;;;;;5053074;28;20464;-78
2022/07/23 02:24:21;;;;;;;8.25;4.13;;;;;;;;;;5052985;28;20080;-78
2022/07/23 02:26:47;;;;;;;7.60;4.18;;;;;;;;;;5052717;28;20048;-78
2022/07/23 02:29:13;;;;;;;11.65;4.75;;;;;;;;;;5052950;28;20416;-78
2022/07/23 02:31:39;;;;;;;8.15;4.18;;;;;;;;;;5052925;28;20033;-78
2022/07/23 02:34:06;;;;;;;10.38;4.38;;;;;;;;;;5052746;28;20341;-78
2022/07/23 02:36:32;;;;;;;9.68;4.80;;;;;;;;;;5052594;28;20036;-77
2022/07/23 02:38:59;;;;;;;8.60;5.25;;;;;;;;;;5052640;28;20025;-78
2022/07/23 02:41:25;;;;;;;11.95;6.22;;;;;;;;;;5052509;28;20017;-78
2022/07/23 02:43:51;;;;;;;7.22;4.57;;;;;;;;;;5052798;28;20421;-77
2022/07/23 02:46:17;;;;;;;8.00;5.18;;;;;;;;;;5052552;28;20075;-77
2022/07/23 02:48:43;;;;;;;13.45;5.13;;;;;;;;;;5052473;28;20109;-78
2022/07/23 02:51:09;;;;;;;11.93;4.40;;;;;;;;;;5052506;28;20099;-78
2022/07/23 02:53:35;;;;;;;10.77;5.03;;;;;;;;;;5052623;28;20443;-78
2022/07/23 02:56:02;;;;;;;13.60;4.90;;;;;;;;;;5052327;28;20057;-78
2022/07/23 02:58:28;;;;;;;8.70;5.43;;;;;;;;;;5052175;28;20021;-78
2022/07/23 03:00:54;;;;;;;8.70;4.75;;;;;;;;;;5052280;28;20029;-77
2022/07/23 03:03:20;;;;;;;7.90;4.63;;;;;;;;;;5052402;28;20103;-78
2022/07/23 03:05:46;;;;;;;8.98;4.75;;;;;;;;;;5052301;28;20416;-78
2022/07/23 03:08:12;;;;;;;12.52;5.35;;;;;;;;;;5052181;28;20024;-78
2022/07/23 03:10:38;;;;;;;8.57;4.57;;;;;;;;;;5052186;28;20040;-78
2022/07/23 03:13:04;;;;;;;9.63;5.55;;;;;;;;;;5052169;28;20029;-78
2022/07/23 03:15:30;;;;;;;10.60;5.55;;;;;;;;;;5051793;28;20029;-78
2022/07/23 03:17:56;;;;;;;11.02;4.97;;;;;;;;;;5052047;28;20064;-78
2022/07/23 03:20:22;;;;;;;7.03;4.35;;;;;;;;;;5051245;28;20032;-78
2022/07/23 03:22:48;;;;;;;6.88;4.40;;;;;;;;;;5051856;28;20570;-78
2022/07/23 03:25:14;;;;;;;9.32;4.93;;;;;;;;;;5052135;28;20025;-78
2022/07/23 03:27:40;;;;;;;7.45;4.88;;;;;;;;;;5051844;28;20036;-77
2022/07/23 03:30:06;;;;;;;7.07;4.13;;;;;;;;;;5051968;28;20025;-78
2022/07/23 03:32:32;;;;;;;9.55;4.15;;;;;;;;;;5051912;28;20039;-78
2022/07/23 03:34:59;;;;;;;6.38;4.15;;;;;;;;;;5051703;28;20032;-78
2022/07/23 03:37:25;;;;;;;9.57;4.75;;;;;;;;;;5051456;28;20033;-78
2022/07/23 03:39:51;;;;;;;8.52;4.43;;;;;;;;;;5051780;28;20025;-78
2022/07/23 03:42:17;;;;;;;9.73;4.55;;;;;;;;;;5051716;28;20104;-78
2022/07/23 03:44:43;;;;;;;9.10;4.22;;;;;;;;;;5051704;28;20049;-78
2022/07/23 03:47:09;;;;;;;11.95;4.75;;;;;;;;;;5051736;28;20040;-78
2022/07/23 03:49:35;;;;;;;8.98;5.10;;;;;;;;;;5051573;28;20032;-78
2022/07/23 03:52:01;;;;;;;8.40;5.07;;;;;;;;;;5051660;28;20025;-78
2022/07/23 03:54:27;;;;;;;7.22;4.32;;;;;;;;;;5051577;28;20407;-78
2022/07/23 03:56:53;;;;;;;7.00;4.45;;;;;;;;;;5051452;28;20013;-78
2022/07/23 03:59:19;;;;;;;10.68;4.72;;;;;;;;;;5051655;28;20040;-78
2022/07/23 04:01:45;;;;;;;10.85;5.07;;;;;;;;;;5051504;28;20357;-78
2022/07/23 04:04:11;;;;;;;8.30;4.82;;;;;;;;;;5051604;28;20013;-78
2022/07/23 04:06:38;;;;;;;8.63;4.80;;;;;;;;;;5051723;28;20021;-78
2022/07/23 04:09:04;;;;;;;6.40;3.90;;;;;;;;;;5051578;28;20439;-78
2022/07/23 04:11:30;;;;;;;7.00;4.72;;;;;;;;;;5051403;28;20386;-78
2022/07/23 04:13:56;;;;;;;6.32;4.30;;;;;;;;;;5051496;28;20025;-78
2022/07/23 04:16:22;;;;;;;6.97;4.22;;;;;;;;;;5051556;28;20515;-77
2022/07/23 04:18:48;;;;;;;6.05;4.30;;;;;;;;;;5051460;28;20053;-77
2022/07/23 04:21:14;;;;;;;7.30;4.90;;;;;;;;;;5051980;28;20017;-77
2022/07/23 04:23:40;;;;;;;8.30;4.78;;;;;;;;;;5051750;28;20422;-78
2022/07/23 04:26:06;;;;;;;6.82;4.10;;;;;;;;;;5051862;28;20522;-78
2022/07/23 04:28:32;;;;;;;8.00;4.40;;;;;;;;;;5051765;28;20040;-77
2022/07/23 04:30:58;;;;;;;5.95;4.07;;;;;;;;;;5052831;28;20029;-77
2022/07/23 04:33:25;;;;;;;6.57;4.43;;;;;;;;;;5055595;28;20032;-78
2022/07/23 04:35:51;;;;;;;8.02;4.10;;;;;;;;;;5055354;28;20021;-78
2022/07/23 04:38:17;;;;;;;8.80;4.43;;;;;;;;;;5055292;28;20545;-78
2022/07/23 04:40:43;;;;;;;7.10;4.30;;;;;;;;;;5054867;28;20052;-77
2022/07/23 04:43:09;;;;;;;5.22;3.97;;;;;;;;;;5054805;28;20057;-78
2022/07/23 04:45:35;;;;;;;7.15;4.30;;;;;;;;;;5054902;28;20032;-78
2022/07/23 04:48:01;;;;;;;8.95;3.97;;;;;;;;;;5054945;28;20029;-78
2022/07/23 04:50:27;;;;;;;5.40;3.60;;;;;;;;;;5054666;28;20033;-78
2022/07/23 04:52:53;;;;;;;7.93;4.47;;;;;;;;;;5054649;28;20033;-78
2022/07/23 04:55:19;;;;;;;10.88;4.35;;;;;;;;;;5054657;28;20029;-78
2022/07/23 04:57:45;;;;;;;8.05;4.43;;;;;;;;;;5054420;28;20033;-78
2022/07/23 05:00:11;;;;;;;15.65;5.03;;;;;;;;;;5054590;28;20075;-78
2022/07/23 05:02:37;;;;;;;6.65;5.00;;;;;;;;;;5054544;28;20021;-78
2022/07/23 05:05:03;;;;;;;11.48;5.00;;;;;;;;;;5054538;28;20025;-78
2022/07/23 05:07:29;;;;;;;9.35;5.25;;;;;;;;;;5054331;28;20108;-78
2022/07/23 05:09:55;;;;;;;9.90;5.90;;;;;;;;;;5054487;28;20166;-78
2022/07/23 05:12:21;;;;;;;10.88;5.70;;;;;;;;;;5054270;28;20086;-78
2022/07/23 05:14:47;;;;;;;9.65;6.43;;;;;;;;;;5054204;28;20400;-78
2022/07/23 05:17:13;;;;;;;14.60;5.40;;;;;;;;;;5053996;28;20057;-78
2022/07/23 05:19:39;;;;;;;15.23;6.13;;;;;;;;;;5054206;28;20032;-78
2022/07/23 05:22:05;;;;;;;12.15;5.63;;;;;;;;;;5054147;28;20036;-78
2022/07/23 05:24:31;;;;;;;10.85;5.90;;;;;;;;;;5054181;28;20371;-78
2022/07/23 05:26:57;;;;;;;13.77;5.20;;;;;;;;;;5053809;28;20036;-78
2022/07/23 05:29:24;;;;;;;10.65;4.40;;;;;;;;;;5054023;28;20360;-78
2022/07/23 05:31:50;;;;;;;10.80;5.03;;;;;;;;;;5054051;28;20028;-78
2022/07/23 05:34:16;;;;;;;10.32;4.95;;;;;;;;;;5054146;28;20021;-78
2022/07/23 05:36:42;;;;;;;10.32;5.20;;;;;;;;;;5053712;28;20083;-78
2022/07/23 05:39:08;;;;;;;9.77;5.03;;;;;;;;;;5053868;28;20036;-78
2022/07/23 05:41:34;;;;;;;11.52;4.07;;;;;;;;;;5053627;28;20026;-78
2022/07/23 05:44:00;;;;;;;8.38;4.30;;;;;;;;;;5053170;28;20036;-78
2022/07/23 05:46:26;;;;;;;10.00;4.75;;;;;;;;;;5053780;28;20021;-78
2022/07/23 05:48:52;;;;;;;6.32;4.15;;;;;;;;;;5053825;28;20021;-78
2022/07/23 05:51:21;;;;;;;7.95;4.40;;;;;;;;;;5053573;28;20029;-78
2022/07/23 05:53:47;;;;;;;7.50;4.50;;;;;;;;;;5053599;28;20036;-78
2022/07/23 05:56:13;;;;;;;5.38;4.10;;;;;;;;;;5051199;28;20017;-78
2022/07/23 05:58:39;;;;;;;10.45;4.32;;;;;;;;;;5033354;28;20064;-78
2022/07/23 06:01:06;;;;;;;9.30;3.85;;;;;;;;;;5033204;28;20080;-78
2022/07/23 06:03:32;;;;;;;10.18;4.63;;;;;;;;;;5033476;28;20021;-78
2022/07/23 06:05:58;;;;;;;6.05;4.20;;;;;;;;;;5033233;28;20357;-78
2022/07/23 06:08:24;;;;;;;8.48;4.35;;;;;;;;;;5033416;28;20461;-78
2022/07/23 06:10:50;;;;;;;7.25;4.40;;;;;;;;;;5033273;28;20036;-78
2022/07/23 06:13:18;;;;;;;7.30;4.05;;;;;;;;;;5033196;28;20029;-78
2022/07/23 06:15:44;;;;;;;8.52;4.03;;;;;;;;;;5033399;28;20078;-78
2022/07/23 06:18:10;;;;;;;6.85;4.35;;;;;;;;;;5033052;28;20041;-78
2022/07/23 06:20:36;;;;;;;6.78;4.88;;;;;;;;;;5033111;28;20877;-78
2022/07/23 06:23:02;;;;;;;10.88;4.53;;;;;;;;;;5032988;28;20022;-78
2022/07/23 06:25:28;;;;;;;8.32;4.55;;;;;;;;;;5032953;28;20055;-78
2022/07/23 06:27:54;;;;;;;16.65;3.78;;;;;;;;;;5032854;28;20033;-78
2022/07/23 06:30:20;;;;;;;11.30;3.92;;;;;;;;;;5032876;28;20042;-78
2022/07/23 06:32:46;;;;;;;6.97;3.60;;;;;;;;;;5032867;28;20472;-78
2022/07/23 06:35:12;;;;;;;13.82;4.47;;;;;;;;;;5036501;28;20078;-78
2022/07/23 06:37:38;;;;;;;8.75;4.00;;;;;;;;;;5052546;28;20083;-78
2022/07/23 06:40:05;;;;;;;13.27;4.03;;;;;;;;;;5051234;28;20423;-78
2022/07/23 06:42:31;;;;;;;5.75;3.45;;;;;;;;;;5052517;28;20395;-78
2022/07/23 06:44:57;;;;;;;7.00;3.60;;;;;;;;;;5052429;28;20029;-78
2022/07/23 06:47:23;;;;;;;11.23;3.47;;;;;;;;;;5052653;28;20025;-78
2022/07/23 06:49:49;;;;;;;13.45;4.07;;;;;;;;;;5052495;28;20033;-78
2022/07/23 06:52:15;;;;;;;8.63;3.28;;;;;;;;;;5052455;28;20041;-78
2022/07/23 06:54:41;;;;;;;10.85;3.70;;;;;;;;;;5051525;28;20025;-78
2022/07/23 06:57:07;;;;;;;7.38;3.35;;;;;;;;;;5052174;28;20036;-78
2022/07/23 06:59:36;;;;;;;7.03;2.90;;;;;;;;;;5052442;28;20025;-78
2022/07/23 07:02:02;;;;;;;10.70;3.10;;;;;;;;;;5052286;28;20561;-78
2022/07/23 07:04:28;;;;;;;7.15;2.92;;;;;;;;;;5052361;28;20364;-78
2022/07/23 07:06:54;;;;;;;7.47;3.20;;;;;;;;;;5052224;28;20033;-78
2022/07/23 07:09:20;;;;;;;6.00;2.85;;;;;;;;;;5050675;28;20032;-78
2022/07/23 07:11:46;;;;;;;7.40;2.70;;;;;;;;;;5051982;28;20368;-78
2022/07/23 07:14:12;;;;;;;6.50;3.25;;;;;;;;;;5052131;28;20025;-77
2022/07/23 07:16:38;;;;;;;8.60;2.88;;;;;;;;;;5051956;28;20099;-78
2022/07/23 07:19:04;;;;;;;5.53;2.75;;;;;;;;;;5052069;28;20040;-78
2022/07/23 07:21:30;;;;;;;5.45;3.00;;;;;;;;;;5051878;28;20071;-77
2022/07/23 07:23:56;;;;;;;3.45;2.50;;;;;;;;;;5052053;28;20025;-78
2022/07/23 07:26:22;;;;;;;5.57;2.35;;;;;;;;;;5051812;28;20044;-78
2022/07/23 07:28:48;;;;;;;3.58;2.15;;;;;;;;;;5051986;28;20040;-78
2022/07/23 07:31:15;;;;;;;5.15;2.08;;;;;;;;;;5051761;28;20021;-78
2022/07/23 07:33:41;;;;;;;4.00;1.83;;;;;;;;;;5051949;28;20466;-78
2022/07/23 07:36:07;;;;;;;2.47;1.65;;;;;;;;;;5051798;28;20035;-77
2022/07/23 07:38:33;;;;;;;10.60;2.65;;;;;;;;;;5051694;28;20120;-78
2022/07/23 07:40:59;;;;;;;4.03;2.38;;;;;;;;;;5051740;28;20154;-78
2022/07/23 07:43:25;;;;;;;12.50;2.65;;;;;;;;;;5051754;28;20025;-78
2022/07/23 07:45:51;;;;;;;5.47;2.47;;;;;;;;;;5051680;28;20320;-77
2022/07/23 07:48:17;;;;;;;4.45;2.67;;;;;;;;;;5051592;28;20037;-78
2022/07/23 07:50:43;;;;;;;5.93;2.83;;;;;;;;;;5051427;28;20310;-78
2022/07/23 07:53:09;;;;;;;9.60;3.35;;;;;;;;;;5051606;28;20107;-78
2022/07/23 07:55:35;;;;;;;4.95;3.00;;;;;;;;;;5050159;28;20314;-77
2022/07/23 07:58:02;;;;;;;11.52;3.42;;;;;;;;;;5038574;28;20033;-78
2022/07/23 08:00:28;;;;;;;5.60;3.10;;;;;;;;;;5031753;28;20065;-78
2022/07/23 08:02:54;;;;;;;9.38;2.83;;;;;;;;;;5031745;28;20365;-78
2022/07/23 08:05:24;;;;;;;5.43;3.38;;;;;;;;;;5031747;28;20029;-78
2022/07/23 08:07:50;;;;;;;8.20;2.70;;;;;;;;;;5035542;28;20030;-79
2022/07/23 08:10:16;;;;;;;7.13;3.60;;;;;;;;;;5034040;28;20484;-79
2022/07/23 08:12:44;;;;;;;6.30;3.08;;;;;;;;;;5035486;28;20029;-79
2022/07/23 08:15:11;;;;;;;8.40;3.90;;;;;;;;;;5035525;28;20395;-78
2022/07/23 08:17:37;;;;;;;8.18;3.22;;;;;;;;;;5035222;28;20049;-78
2022/07/23 08:20:04;;;;;;;7.88;2.88;;;;;;;;;;5035380;28;20111;-78
2022/07/23 08:22:50;;;;;;;6.65;2.67;;;;;;;;;;5035389;28;20089;-78
2022/07/23 08:25:17;;;;;;;6.72;3.42;;;;;;;;;;5035334;28;20026;-79
2022/07/23 08:27:43;;;;;;;5.43;2.97;;;;;;;;;;5035087;28;20029;-79
2022/07/23 08:30:09;;;;;;;6.30;2.97;;;;;;;;;;5034945;28;20032;-78
2022/07/23 08:32:48;;;;;;;3.78;2.38;;;;;;;;;;5035081;28;20408;-78
2022/07/23 08:35:14;;;;;;;5.10;2.72;;;;;;;;;;5039279;28;20131;-79
2022/07/23 08:37:40;;;;;;;6.82;2.80;;;;;;;;;;5054902;28;20038;-79
2022/07/23 08:40:06;;;;;;;3.88;2.05;;;;;;;;;;5054873;28;20404;-78
2022/07/23 08:42:35;;;;;;;7.55;2.00;;;;;;;;;;5054795;28;20468;-78
2022/07/23 08:45:01;;;;;;;2.80;2.03;;;;;;;;;;5054911;28;20075;-78
2022/07/23 08:47:27;;;;;;;3.08;2.17;;;;;;;;;;5054971;28;20424;-78
2022/07/23 08:49:53;;;;;;;6.95;2.60;;;;;;;;;;5054882;28;20075;-79
2022/07/23 08:52:19;;;;;;;4.80;2.30;;;;;;;;;;5054733;28;20029;-78
2022/07/23 08:54:45;;;;;;;4.85;2.08;;;;;;;;;;5054663;28;20021;-79
2022/07/23 08:57:11;;;;;;;3.88;2.15;;;;;;;;;;5051395;28;20025;-78
2022/07/23 08:59:37;;;;;;;4.25;2.33;;;;;;;;;;5034676;28;20026;-79
2022/07/23 09:02:03;;;;;;;4.75;2.63;;;;;;;;;;5034573;28;20017;-79
2022/07/23 09:04:31;;;;;;;5.50;2.70;;;;;;;;;;5034558;28;20071;-78
2022/07/23 09:06:57;;;;;;;4.30;2.58;;;;;;;;;;5034655;28;20040;-78
2022/07/23 09:09:25;;;;;;;4.88;2.60;;;;;;;;;;5034405;28;20025;-78
2022/07/23 09:12:04;;;;;;;3.30;2.47;;;;;;;;;;5034311;28;20478;-79
2022/07/23 09:14:44;;;;;;;5.03;2.80;;;;;;;;;;5044164;28;20046;-78
2022/07/23 09:17:11;;;;;;;6.60;2.90;;;;;;;;;;5053177;28;20071;-78
2022/07/23 09:19:37;;;;;;;4.05;2.25;;;;;;;;;;5054049;28;20036;-78
2022/07/23 09:22:22;;;;;;;5.90;2.60;;;;;;;;;;5054091;28;20537;-78
2022/07/23 09:25:07;;;;;;;5.15;2.83;;;;;;;;;;5054200;28;20502;-78
2022/07/23 09:27:53;;;;;;;5.75;3.15;;;;;;;;;;5054102;28;20033;-78
2022/07/23 09:30:20;;;;;;;5.00;2.70;;;;;;;;;;5054002;28;20029;-78
2022/07/23 09:33:05;;;;;;;9.10;2.90;;;;;;;;;;5053947;28;20029;-78
2022/07/23 09:35:54;;;;;;;5.45;2.60;;;;;;;;;;5052477;28;20391;-78
2022/07/23 09:38:21;;;;;;;6.00;3.00;;;;;;;;;;5053892;28;20079;-78
2022/07/23 09:40:48;;;;;;;3.28;1.73;;;;;;;;;;5053991;28;20029;-79
2022/07/23 09:43:28;;;;;;;3.10;2.00;;;;;;;;;;5053729;28;20025;-78
2022/07/23 09:45:54;;;;;;;11.43;1.70;;;;;;;;;;5053728;28;20039;-78
2022/07/23 09:48:20;;;;;;;2.03;1.40;;;;;;;;;;5053610;28;20429;-78
2022/07/23 09:50:46;;;;;;;6.60;2.70;;;;;;;;;;5053552;28;20024;-78
2022/07/23 09:53:28;;;;;;;7.85;2.35;;;;;;;;;;5053368;28;20093;-78
2022/07/23 09:55:57;;;;;;;5.55;2.03;;;;;;;;;;5053327;28;20036;-78
2022/07/23 09:58:26;;;;;;;4.57;1.90;;;;;;;;;;5041457;28;20476;-79
2022/07/23 10:00:53;;;;;;;9.18;2.38;;;;;;;;;;5033633;28;20108;-79
2022/07/23 10:03:20;;;;;;;5.60;2.05;;;;;;;;;;5033520;28;20021;-79
2022/07/23 10:05:46;;;;;;;5.32;2.35;;;;;;;;;;5033547;28;20017;-78
2022/07/23 10:08:12;;;;;;;3.60;2.22;;;;;;;;;;5033305;28;20065;-79
2022/07/23 10:10:42;;;;;;;4.78;1.83;;;;;;;;;;5033484;28;20029;-79
2022/07/23 10:15:54;;;;;;;4.57;2.40;;;;;;;;;;5033199;28;20052;-78
2022/07/23 10:18:20;;;;;;;7.55;2.40;;;;;;;;;;5033071;28;20065;-78
2022/07/23 10:20:48;;;;;;;5.07;2.45;;;;;;;;;;5032812;28;20108;-78
2022/07/23 10:23:17;;;;;;;5.63;2.35;;;;;;;;;;5033125;28;20075;-78
2022/07/23 10:25:58;;;;;;;4.28;2.22;;;;;;;;;;5032946;28;20025;-78
2022/07/23 10:28:24;;;;;;;4.88;2.22;;;;;;;;;;5032748;28;20048;-78
2022/07/23 10:30:56;;;;;;;6.75;2.28;;;;;;;;;;5032869;28;20037;-78
2022/07/23 10:33:33;;;;;;;3.38;1.65;;;;;;;;;;5032902;28;20037;-78
2022/07/23 10:36:08;;;;;;;4.32;1.98;;;;;;;;;;5043077;28;20033;-78
2022/07/23 10:38:34;;;;;;;6.45;1.80;;;;;;;;;;5052595;28;20096;-78
2022/07/23 10:41:01;;;;;;;4.03;1.70;;;;;;;;;;5052787;28;20052;-78
2022/07/23 10:43:28;;;;;;;3.95;1.60;;;;;;;;;;5052489;28;20056;-78
2022/07/23 10:45:54;;;;;;;4.40;2.20;;;;;;;;;;5051276;28;20025;-78
2022/07/23 10:48:21;;;;;;;3.50;1.30;;;;;;;;;;5052745;28;20025;-78
2022/07/23 10:51:06;;;;;;;5.20;1.60;;;;;;;;;;5052816;28;20044;-77
2022/07/23 10:54:08;;;;;;;3.10;1.50;;;;;;;;;;5052729;28;20048;-78
2022/07/23 10:56:52;;;;;;;2.70;1.33;;;;;;;;;;5029862;28;20096;-78
2022/07/23 10:59:18;;;;;;;2.75;1.50;;;;;;;;;;5013623;28;20041;-78
2022/07/23 11:01:44;;;;;;;3.25;1.60;;;;;;;;;;5010207;28;20030;-78
2022/07/23 11:04:12;;;;;;;2.83;1.30;;;;;;;;;;5010637;28;20065;-78
2022/07/23 11:06:49;;;;;;;3.83;1.80;;;;;;;;;;5010134;28;20033;-78
2022/07/23 11:09:28;;;;;;;5.65;2.10;;;;;;;;;;5009848;28;20033;-78
2022/07/23 11:12:13;;;;;;;5.70;1.50;;;;;;;;;;5009825;28;20093;-78
2022/07/23 11:14:57;;;;;;;3.80;1.80;;;;;;;;;;5020426;28;20037;-77
2022/07/23 11:17:27;;;;;;;2.78;1.60;;;;;;;;;;5029286;28;20480;-78
2022/07/23 11:20:12;;;;;;;4.10;1.70;;;;;;;;;;5012808;28;20021;-78
2022/07/23 11:22:44;;;;;;;7.55;1.90;;;;;;;;;;5029283;28;20033;-77
2022/07/23 11:25:10;;;;;;;;;;;;;;;;;;5029773;28;20037;-78
2022/07/23 11:27:43;;;;;;;6.38;1.80;;;;;;;;;;5029366;28;20387;-78
2022/07/23 11:30:09;;;;;;;4.82;2.08;;;;;;;;;;5036717;28;20041;-78
2022/07/23 11:32:38;;;;;;;2.45;1.73;;;;;;;;;;5051865;28;20123;-78
2022/07/23 11:35:19;;;;;;;5.32;2.10;;;;;;;;;;5051884;28;20033;-78
2022/07/23 11:37:46;;;;;;;4.13;1.65;;;;;;;;;;5051694;28;20017;-78
2022/07/23 11:40:13;;;;;;;2.42;1.55;;;;;;;;;;5051191;28;20029;-78
2022/07/23 11:42:40;;;;;;;6.45;1.52;;;;;;;;;;5051475;28;20067;-77
2022/07/23 11:45:07;;;;;;;4.43;1.70;;;;;;;;;;5051620;28;20021;-78
2022/07/23 11:47:33;;;;;;;3.70;1.50;;;;;;;;;;5051550;28;20094;-78
2022/07/23 11:50:01;;;;;;;3.05;1.90;;;;;;;;;;5051380;28;20089;-77
2022/07/23 11:52:28;;;;;;;2.47;1.33;;;;;;;;;;5051305;28;20049;-78
2022/07/23 11:54:59;;;;;;;3.58;1.85;;;;;;;;;;5051509;28;20495;-78
2022/07/23 11:57:26;;;;;;;2.85;1.98;;;;;;;;;;5051303;28;20021;-78
2022/07/23 11:59:55;;;;;;;7.38;2.58;;;;;;;;;;5051515;28;20029;-78
2022/07/23 12:02:21;;;;;;;3.40;1.90;;;;;;;;;;5051596;28;20024;-78
2022/07/23 12:04:48;;;;;;;4.15;1.90;;;;;;;;;;5051393;28;20021;-78
2022/07/23 12:07:27;;;;;;;5.18;2.03;;;;;;;;;;5051403;28;20068;-78
2022/07/23 12:09:53;;;;;;;3.63;1.88;;;;;;;;;;5051282;28;20027;-78
2022/07/23 12:12:19;;;;;;;2.95;1.70;;;;;;;;;;5051174;28;20091;-77
2022/07/23 12:14:48;;;;;;;4.75;1.67;;;;;;;;;;5051464;28;20036;-78
2022/07/23 12:17:14;;;;;;;6.38;1.70;;;;;;;;;;5051366;28;20076;-78
2022/07/23 12:19:41;;;;;;;3.38;1.75;;;;;;;;;;5051163;28;20502;-78
2022/07/23 12:22:07;;;;;;;5.22;2.15;;;;;;;;;;5051148;28;20025;-78
2022/07/23 12:24:52;;;;;;;3.40;1.60;;;;;;;;;;5051202;28;20021;-78
2022/07/23 12:27:20;;;;;;;4.20;1.80;;;;;;;;;;5051075;28;20022;-79
2022/07/23 12:29:46;;;;;;;5.53;1.63;;;;;;;;;;5051064;28;20055;-78
2022/07/23 12:32:26;;;;;;;2.33;1.50;;;;;;;;;;5051049;28;20124;-78
2022/07/23 12:35:13;;;;;;;3.35;1.55;;;;;;;;;;5051104;28;20096;-78
2022/07/23 12:37:40;;;;;;;3.95;1.60;;;;;;;;;;5051032;28;20025;-78
2022/07/23 12:40:25;;;;;;;4.18;1.52;;;;;;;;;;5051131;28;20375;-78
2022/07/23 12:42:55;;;;;;;6.80;1.80;;;;;;;;;;5051010;28;20029;-78
2022/07/23 12:45:21;;;;;;;5.15;1.60;;;;;;;;;;5051273;28;20331;-78
2022/07/23 12:47:58;;;;;;;3.72;1.80;;;;;;;;;;5051047;28;20043;-78
2022/07/23 12:50:31;;;;;;;3.72;1.70;;;;;;;;;;5051121;28;20036;-78
2022/07/23 12:53:07;;;;;;;5.53;2.25;;;;;;;;;;5051896;28;20456;-78
2022/07/23 12:55:33;;;;;;;2.42;1.48;;;;;;;;;;5054721;28;20052;-78
2022/07/23 12:58:04;;;;;;;3.20;1.80;;;;;;;;;;5054398;28;20467;-78
2022/07/23 13:00:30;;;;;;;5.07;1.70;;;;;;;;;;5054664;28;20066;-78
2022/07/23 13:02:56;;;;;;;3.15;1.75;;;;;;;;;;5054671;28;20375;-78
2022/07/23 13:05:22;;;;;;;3.40;1.83;;;;;;;;;;5054562;28;20025;-78
2022/07/23 13:07:49;;;;;;;3.08;1.40;;;;;;;;;;5054398;28;20493;-78
2022/07/23 13:10:15;;;;;;;2.53;1.67;;;;;;;;;;5054446;28;20063;-78
2022/07/23 13:12:41;;;;;;;2.53;1.50;;;;;;;;;;5054306;28;20033;-78
2022/07/23 13:15:07;;;;;;;2.67;1.52;;;;;;;;;;5054302;28;20050;-78
2022/07/23 13:17:33;;;;;;;2.47;1.27;;;;;;;;;;5054080;28;20061;-78
2022/07/23 13:19:59;;;;;;;2.10;1.23;;;;;;;;;;5054225;28;20032;-78
2022/07/23 13:22:25;;;;;;;3.90;1.55;;;;;;;;;;5054040;28;20025;-78
2022/07/23 13:24:52;;;;;;;3.85;1.30;;;;;;;;;;5054160;28;20379;-78
2022/07/23 13:27:18;;;;;;;2.60;1.30;;;;;;;;;;5053960;28;20051;-78
2022/07/23 13:29:44;;;;;;;4.18;1.38;;;;;;;;;;5054116;28;20064;-78
2022/07/23 13:32:10;;;;;;;7.18;1.70;;;;;;;;;;5054142;28;20036;-78
2022/07/23 13:34:36;;;;;;;3.95;1.63;;;;;;;;;;5053828;28;20471;-78
2022/07/23 13:37:02;;;;;;;3.63;1.70;;;;;;;;;;5053907;28;20074;-78
2022/07/23 13:39:28;;;;;;;2.50;1.50;;;;;;;;;;5053851;28;20079;-78
2022/07/23 13:41:54;;;;;;;4.95;2.17;;;;;;;;;;5053670;28;20464;-78
2022/07/23 13:44:20;;;;;;;5.72;1.73;;;;;;;;;;5053851;28;20025;-78
2022/07/23 13:46:46;;;;;;;3.00;1.40;;;;;;;;;;5053665;28;20025;-76
2022/07/23 13:49:12;;;;;;;2.45;1.35;;;;;;;;;;5053535;28;20475;-78
2022/07/23 13:51:38;;;;;;;3.55;1.52;;;;;;;;;;5053501;28;20398;-78
2022/07/23 13:54:04;;;;;;;2.78;1.35;;;;;;;;;;5053542;28;20021;-76
2022/07/23 13:56:30;;;;;;;5.72;1.63;;;;;;;;;;5053241;28;20029;-76
2022/07/23 13:58:57;;;;;;;3.53;1.30;;;;;;;;;;5045144;28;20032;-78
2022/07/23 14:01:23;;;;;;;2.85;1.50;;;;;;;;;;5033357;28;20372;-78
2022/07/23 14:03:49;;;;;;;3.90;1.60;;;;;;;;;;5032891;28;20022;-78
2022/07/23 14:06:15;;;;;;;2.75;1.73;;;;;;;;;;5031901;28;20464;-78
2022/07/23 14:08:41;;;;;;;3.35;1.55;;;;;;;;;;5033318;28;20040;-78
2022/07/23 14:11:07;;;;;;;4.50;1.58;;;;;;;;;;5033255;28;20037;-78
2022/07/23 14:13:33;;;;;;;6.80;1.50;;;;;;;;;;5033139;28;20084;-78
2022/07/23 14:15:59;;;;;;;3.47;1.42;;;;;;;;;;5033519;28;20034;-78
2022/07/23 14:18:25;;;;;;;1.90;1.20;;;;;;;;;;5032907;28;20104;-78
2022/07/23 14:20:51;;;;;;;2.95;1.30;;;;;;;;;;5033112;28;20044;-78
2022/07/23 14:23:17;;;;;;;3.17;1.42;;;;;;;;;;5033014;28;20029;-77
2022/07/23 14:25:43;;;;;;;5.78;1.60;;;;;;;;;;5033087;28;20060;-78
2022/07/23 14:28:11;;;;;;;5.38;1.42;;;;;;;;;;5032878;28;20040;-77
2022/07/23 14:30:37;;;;;;;2.35;1.42;;;;;;;;;;5032980;28;20031;-78
2022/07/23 14:33:03;;;;;;;2.63;1.42;;;;;;;;;;5031523;28;20036;-78
2022/07/23 14:35:29;;;;;;;5.75;1.65;;;;;;;;;;5038764;28;20025;-78
2022/07/23 14:37:56;;;;;;;4.05;1.60;;;;;;;;;;5052502;28;20138;-78
2022/07/23 14:40:22;;;;;;;4.57;2.05;;;;;;;;;;5052572;28;20052;-78
2022/07/23 14:42:48;;;;;;;4.88;1.50;;;;;;;;;;5052478;28;20032;-76
2022/07/23 14:45:14;;;;;;;6.38;1.60;;;;;;;;;;5052537;28;20021;-78